Time;durP1;ratioP1;P1;durP2;ratioP2;P2;SDS_P1;SDS_P2;PMS_P1;PMS_P2;Temp;Humidity;BMP_temperature;BMP_pressure;BME280_temperature;BME280_humidity;BME280_pressure;Samples;Min_cycle;Max_cycle;Signal;HPM_P1;HPM_P2
2022/07/23 00:01:08;;;;;;;4.07;1.55;;;;;;;;;;5042816;28;20132;-71
2022/07/23 00:03:36;;;;;;;1.83;1.02;;;;;;;;;;5043404;28;20132;-71
2022/07/23 00:06:07;;;;;;;1.85;1.00;;;;;;;;;;5043588;28;20088;-71
2022/07/23 00:08:37;;;;;;;4.85;1.90;;;;;;;;;;5039750;28;20088;-71
2022/07/23 00:11:10;;;;;;;1.65;1.35;;;;;;;;;;5040050;28;20152;-71
2022/07/23 00:13:38;;;;;;;1.20;0.85;;;;;;;;;;5037164;28;20110;-72
2022/07/23 00:16:10;;;;;;;1.77;1.00;;;;;;;;;;5033988;28;20145;-72
2022/07/23 00:18:39;;;;;;;1.27;0.93;;;;;;;;;;5033002;28;20435;-72
2022/07/23 00:21:10;;;;;;;3.03;1.48;;;;;;;;;;5044696;28;20505;-72
2022/07/23 00:23:39;;;;;;;2.50;1.58;;;;;;;;;;5034778;28;20130;-72
2022/07/23 00:26:11;;;;;;;2.28;1.23;;;;;;;;;;5040245;28;20071;-72
2022/07/23 00:28:39;;;;;;;1.10;1.00;;;;;;;;;;5029703;28;20221;-71
2022/07/23 00:31:08;;;;;;;1.35;0.98;;;;;;;;;;5049058;28;20124;-72
2022/07/23 00:33:36;;;;;;;2.25;1.05;;;;;;;;;;5049273;28;20068;-72
2022/07/23 00:36:08;;;;;;;2.75;1.27;;;;;;;;;;5033248;28;21649;-72
2022/07/23 00:38:36;;;;;;;1.83;1.05;;;;;;;;;;5028484;28;20479;-72
2022/07/23 00:41:07;;;;;;;1.73;1.30;;;;;;;;;;5030773;28;20400;-72
2022/07/23 00:43:37;;;;;;;1.10;0.98;;;;;;;;;;5029425;28;20068;-72
2022/07/23 00:46:09;;;;;;;1.45;1.08;;;;;;;;;;5026948;28;20045;-71
2022/07/23 00:48:37;;;;;;;2.15;1.48;;;;;;;;;;5036514;28;20140;-72
2022/07/23 00:51:09;;;;;;;2.78;1.30;;;;;;;;;;5030194;28;20053;-72
2022/07/23 00:53:37;;;;;;;1.63;0.90;;;;;;;;;;5028354;28;20421;-71
2022/07/23 00:56:09;;;;;;;1.95;1.05;;;;;;;;;;5036514;28;20175;-72
2022/07/23 00:58:40;;;;;;;2.00;1.20;;;;;;;;;;5025320;28;20077;-72
2022/07/23 01:01:09;;;;;;;2.40;1.30;;;;;;;;;;5029948;28;20085;-72
2022/07/23 01:03:37;;;;;;;2.15;1.00;;;;;;;;;;5022284;28;20076;-72
2022/07/23 01:06:09;;;;;;;2.08;0.95;;;;;;;;;;5027460;28;20513;-71
2022/07/23 01:08:37;;;;;;;1.85;1.10;;;;;;;;;;5031910;28;20061;-71
2022/07/23 01:11:10;;;;;;;1.00;0.85;;;;;;;;;;5031023;28;20568;-72
2022/07/23 01:13:42;;;;;;;2.85;1.67;;;;;;;;;;5033924;28;20092;-70
2022/07/23 01:16:10;;;;;;;2.30;1.17;;;;;;;;;;5032623;28;20081;-71
2022/07/23 01:18:39;;;;;;;1.75;1.23;;;;;;;;;;5040260;28;20492;-71
2022/07/23 01:21:12;;;;;;;1.27;1.05;;;;;;;;;;5030515;28;20050;-70
2022/07/23 01:23:42;;;;;;;1.73;1.02;;;;;;;;;;5037697;28;20114;-70
2022/07/23 01:26:11;;;;;;;1.52;1.13;;;;;;;;;;5031370;28;20177;-71
2022/07/23 01:28:39;;;;;;;3.03;2.33;;;;;;;;;;5026407;28;20553;-70
2022/07/23 01:31:08;;;;;;;4.50;1.88;;;;;;;;;;5028771;28;20123;-70
2022/07/23 01:33:36;;;;;;;5.18;1.52;;;;;;;;;;5031949;28;20137;-72
2022/07/23 01:36:07;;;;;;;2.00;1.20;;;;;;;;;;5028292;28;20084;-70
2022/07/23 01:38:35;;;;;;;2.58;0.95;;;;;;;;;;5032018;28;20088;-70
2022/07/23 01:41:07;;;;;;;4.57;1.70;;;;;;;;;;5033294;28;20136;-70
2022/07/23 01:43:36;;;;;;;1.73;1.17;;;;;;;;;;5036089;28;20454;-71
2022/07/23 01:46:07;;;;;;;5.88;1.20;;;;;;;;;;5029681;28;20448;-71
2022/07/23 01:48:36;;;;;;;1.85;1.33;;;;;;;;;;5032443;28;20076;-72
2022/07/23 01:51:08;;;;;;;2.22;1.10;;;;;;;;;;5029530;28;20048;-72
2022/07/23 01:53:36;;;;;;;0.95;0.85;;;;;;;;;;5035323;28;20469;-72
2022/07/23 01:56:08;;;;;;;3.10;0.82;;;;;;;;;;5036460;28;20045;-73
2022/07/23 01:58:37;;;;;;;1.65;0.88;;;;;;;;;;5028507;28;20456;-73
2022/07/23 02:01:08;;;;;;;1.13;1.00;;;;;;;;;;5023858;28;20156;-73
2022/07/23 02:03:37;;;;;;;1.17;0.68;;;;;;;;;;5025530;28;20054;-72
2022/07/23 02:06:09;;;;;;;2.10;1.00;;;;;;;;;;5031684;28;20144;-73
2022/07/23 02:08:37;;;;;;;0.75;0.50;;;;;;;;;;5029417;28;20053;-73
2022/07/23 02:11:10;;;;;;;0.95;0.88;;;;;;;;;;5030827;28;20140;-73
2022/07/23 02:13:38;;;;;;;0.63;0.60;;;;;;;;;;5041631;28;20113;-72
2022/07/23 02:16:09;;;;;;;4.28;1.00;;;;;;;;;;5042455;28;20156;-71
2022/07/23 02:18:38;;;;;;;1.13;0.82;;;;;;;;;;5028554;28;20729;-72
2022/07/23 02:21:07;;;;;;;1.05;0.75;;;;;;;;;;5036189;28;20076;-72
2022/07/23 02:23:36;;;;;;;3.38;1.00;;;;;;;;;;5028627;28;20049;-73
2022/07/23 02:26:09;;;;;;;0.60;0.60;;;;;;;;;;5034375;28;20370;-73
2022/07/23 02:28:37;;;;;;;0.45;0.40;;;;;;;;;;5036427;28;20111;-73
2022/07/23 02:31:09;;;;;;;2.20;0.75;;;;;;;;;;5037627;28;20127;-73
2022/07/23 02:33:37;;;;;;;0.73;0.55;;;;;;;;;;5028766;28;20046;-71
2022/07/23 02:36:09;;;;;;;1.02;0.93;;;;;;;;;;5028294;28;20513;-70
2022/07/23 02:38:37;;;;;;;0.68;0.50;;;;;;;;;;5033998;28;20487;-69
2022/07/23 02:41:10;;;;;;;1.38;0.50;;;;;;;;;;5028830;28;20068;-70
2022/07/23 02:43:38;;;;;;;1.17;0.55;;;;;;;;;;5021605;28;20132;-71
2022/07/23 02:46:10;;;;;;;1.02;0.63;;;;;;;;;;5038613;28;20128;-70
2022/07/23 02:48:38;;;;;;;0.55;0.50;;;;;;;;;;5049322;28;20045;-71
2022/07/23 02:51:10;;;;;;;0.30;0.30;;;;;;;;;;5032473;28;20132;-70
2022/07/23 02:53:42;;;;;;;0.35;0.32;;;;;;;;;;5028885;28;20131;-70
2022/07/23 02:56:12;;;;;;;1.75;0.70;;;;;;;;;;5022028;28;20140;-72
2022/07/23 02:58:40;;;;;;;0.75;0.50;;;;;;;;;;5027949;28;20072;-70
2022/07/23 03:01:08;;;;;;;0.85;0.85;;;;;;;;;;5024167;28;20084;-71
2022/07/23 03:03:37;;;;;;;0.68;0.47;;;;;;;;;;5031898;28;20045;-71
2022/07/23 03:06:08;;;;;;;0.65;0.50;;;;;;;;;;5038902;28;20136;-70
2022/07/23 03:08:37;;;;;;;0.50;0.50;;;;;;;;;;5030579;28;20069;-70
2022/07/23 03:11:10;;;;;;;0.52;0.40;;;;;;;;;;5033143;28;20122;-73
2022/07/23 03:13:40;;;;;;;0.88;0.50;;;;;;;;;;5026457;28;20076;-70
2022/07/23 03:16:09;;;;;;;0.70;0.38;;;;;;;;;;5034088;28;20132;-75
2022/07/23 03:18:38;;;;;;;0.52;0.50;;;;;;;;;;5027439;28;20119;-72
2022/07/23 03:21:08;;;;;;;0.75;0.57;;;;;;;;;;5033012;28;20099;-70
2022/07/23 03:23:36;;;;;;;0.98;0.57;;;;;;;;;;5027622;28;20088;-72
2022/07/23 03:26:08;;;;;;;1.50;0.63;;;;;;;;;;5027588;28;20073;-70
2022/07/23 03:28:36;;;;;;;0.60;0.60;;;;;;;;;;5032593;28;20132;-75
2022/07/23 03:31:09;;;;;;;0.60;0.55;;;;;;;;;;5032900;28;20077;-70
2022/07/23 03:33:37;;;;;;;1.00;0.50;;;;;;;;;;5027803;28;20049;-70
2022/07/23 03:36:10;;;;;;;0.88;0.70;;;;;;;;;;5034674;28;20057;-69
2022/07/23 03:38:38;;;;;;;0.50;0.50;;;;;;;;;;5045086;28;20049;-70
2022/07/23 03:41:09;;;;;;;0.75;0.75;;;;;;;;;;5038016;28;20568;-69
2022/07/23 03:43:38;;;;;;;0.50;0.45;;;;;;;;;;5027091;28;20217;-75
2022/07/23 03:46:10;;;;;;;0.45;0.40;;;;;;;;;;5026710;28;20104;-70
2022/07/23 03:48:39;;;;;;;1.17;0.65;;;;;;;;;;5025249;28;20520;-70
2022/07/23 03:51:08;;;;;;;2.10;1.00;;;;;;;;;;5024552;28;20523;-71
2022/07/23 03:53:36;;;;;;;1.65;1.00;;;;;;;;;;5035991;28;20080;-69
2022/07/23 03:56:07;;;;;;;0.52;0.40;;;;;;;;;;5038484;28;20131;-70
2022/07/23 03:58:37;;;;;;;0.55;0.38;;;;;;;;;;5040301;28;20049;-69
2022/07/23 04:01:08;;;;;;;1.20;0.50;;;;;;;;;;5037439;28;20073;-70
2022/07/23 04:03:38;;;;;;;0.68;0.60;;;;;;;;;;5035987;28;20127;-70
2022/07/23 04:06:10;;;;;;;0.40;0.40;;;;;;;;;;5045548;28;20437;-69
2022/07/23 04:08:38;;;;;;;1.10;0.65;;;;;;;;;;5033050;28;20120;-70
2022/07/23 04:11:09;;;;;;;0.43;0.40;;;;;;;;;;5040307;28;20111;-70
2022/07/23 04:13:37;;;;;;;0.57;0.40;;;;;;;;;;5030096;28;20407;-69
2022/07/23 04:16:09;;;;;;;0.43;0.40;;;;;;;;;;5050902;28;20128;-69
2022/07/23 04:18:39;;;;;;;0.40;0.32;;;;;;;;;;5043829;28;20057;-71
2022/07/23 04:21:07;;;;;;;0.38;0.38;;;;;;;;;;5043727;28;20521;-71
2022/07/23 04:23:36;;;;;;;0.28;0.28;;;;;;;;;;5035712;28;20068;-71
2022/07/23 04:26:07;;;;;;;1.25;0.88;;;;;;;;;;5030794;28;20475;-76
2022/07/23 04:28:35;;;;;;;1.75;0.63;;;;;;;;;;5033812;28;20052;-71
2022/07/23 04:31:07;;;;;;;1.00;0.75;;;;;;;;;;5051679;28;20131;-72
2022/07/23 04:33:35;;;;;;;1.63;0.88;;;;;;;;;;5025900;28;20078;-71
2022/07/23 04:36:08;;;;;;;0.82;0.52;;;;;;;;;;5031799;28;20144;-72
2022/07/23 04:38:36;;;;;;;1.02;0.47;;;;;;;;;;5025128;28;20094;-76
2022/07/23 04:41:07;;;;;;;0.20;0.20;;;;;;;;;;5032192;28;20145;-73
2022/07/23 04:43:36;;;;;;;1.13;0.55;;;;;;;;;;5022720;28;20583;-71
2022/07/23 04:46:07;;;;;;;0.90;0.60;;;;;;;;;;5038999;28;20081;-74
2022/07/23 04:48:35;;;;;;;0.68;0.47;;;;;;;;;;5035889;28;20080;-71
2022/07/23 04:51:08;;;;;;;0.57;0.57;;;;;;;;;;5032686;28;20146;-71
2022/07/23 04:53:38;;;;;;;1.05;0.60;;;;;;;;;;5034311;28;20427;-71
2022/07/23 04:56:09;;;;;;;1.05;0.32;;;;;;;;;;5041910;28;20076;-70
2022/07/23 04:58:38;;;;;;;2.03;0.75;;;;;;;;;;5032220;28;20133;-71
2022/07/23 05:01:09;;;;;;;0.47;0.40;;;;;;;;;;5032054;28;20128;-71
2022/07/23 05:03:37;;;;;;;1.10;0.55;;;;;;;;;;5039697;28;20071;-71
2022/07/23 05:06:10;;;;;;;0.60;0.40;;;;;;;;;;5039013;28;20048;-71
2022/07/23 05:08:39;;;;;;;0.95;0.63;;;;;;;;;;5042345;28;20460;-70
2022/07/23 05:11:07;;;;;;;0.70;0.60;;;;;;;;;;5030037;28;20045;-71
2022/07/23 05:13:36;;;;;;;1.23;0.85;;;;;;;;;;5022758;28;20051;-72
2022/07/23 05:16:07;;;;;;;1.95;0.88;;;;;;;;;;5033262;28;20052;-72
2022/07/23 05:18:36;;;;;;;0.50;0.50;;;;;;;;;;5032141;28;20060;-71
2022/07/23 05:21:07;;;;;;;1.30;0.93;;;;;;;;;;5032158;28;20513;-70
2022/07/23 05:23:37;;;;;;;0.93;0.60;;;;;;;;;;5030990;28;20077;-71
2022/07/23 05:26:08;;;;;;;1.85;0.80;;;;;;;;;;5031418;28;20552;-70
2022/07/23 05:28:37;;;;;;;1.00;0.68;;;;;;;;;;5029968;28;20087;-70
2022/07/23 05:31:08;;;;;;;1.40;0.82;;;;;;;;;;5043966;28;20091;-70
2022/07/23 05:33:36;;;;;;;1.63;0.93;;;;;;;;;;5037187;28;20132;-71
2022/07/23 05:36:08;;;;;;;1.73;0.73;;;;;;;;;;5031703;28;20160;-73
2022/07/23 05:38:38;;;;;;;0.75;0.52;;;;;;;;;;5036554;28;20135;-71
2022/07/23 05:41:09;;;;;;;0.93;0.65;;;;;;;;;;5033263;28;20463;-76
2022/07/23 05:43:37;;;;;;;3.30;1.02;;;;;;;;;;5029201;28;20083;-75
2022/07/23 05:46:08;;;;;;;0.80;0.60;;;;;;;;;;5034243;28;20497;-72
2022/07/23 05:48:37;;;;;;;0.32;0.22;;;;;;;;;;5036914;28;20049;-71
2022/07/23 05:51:09;;;;;;;0.95;0.93;;;;;;;;;;5045347;28;20045;-73
2022/07/23 05:53:39;;;;;;;0.85;0.65;;;;;;;;;;5037053;28;20053;-71
2022/07/23 05:56:10;;;;;;;1.05;0.75;;;;;;;;;;5037145;28;20092;-75
2022/07/23 05:58:38;;;;;;;2.10;1.17;;;;;;;;;;5033714;28;20068;-71
2022/07/23 06:01:11;;;;;;;2.33;0.73;;;;;;;;;;5036280;28;20452;-71
2022/07/23 06:03:40;;;;;;;1.25;0.95;;;;;;;;;;5030632;28;20118;-71
2022/07/23 06:06:09;;;;;;;0.60;0.45;;;;;;;;;;5026793;28;20485;-71
2022/07/23 06:08:38;;;;;;;0.85;0.63;;;;;;;;;;5027177;28;20132;-71
2022/07/23 06:11:10;;;;;;;1.80;1.15;;;;;;;;;;5029300;28;20132;-71
2022/07/23 06:13:38;;;;;;;1.88;0.88;;;;;;;;;;5031845;28;20251;-71
2022/07/23 06:16:07;;;;;;;1.23;0.90;;;;;;;;;;5031286;28;20119;-71
2022/07/23 06:18:35;;;;;;;1.23;0.60;;;;;;;;;;5039853;28;20218;-79
2022/07/23 06:21:06;;;;;;;1.20;0.50;;;;;;;;;;5034555;28;20519;-71
2022/07/23 06:23:55;;;;;;;0.90;0.70;;;;;;;;;;5031211;28;20048;-71
2022/07/23 06:26:24;;;;;;;2.03;1.23;;;;;;;;;;5034092;28;20050;-74
2022/07/23 06:28:52;;;;;;;0.68;0.45;;;;;;;;;;5025787;28;20136;-71
2022/07/23 06:31:20;;;;;;;1.58;1.08;;;;;;;;;;5031945;28;20065;-71
2022/07/23 06:33:49;;;;;;;3.15;1.50;;;;;;;;;;5050986;28;20077;-71
2022/07/23 06:36:18;;;;;;;1.02;0.90;;;;;;;;;;5033964;28;20077;-74
2022/07/23 06:38:47;;;;;;;2.30;0.85;;;;;;;;;;5028313;28;20046;-71
2022/07/23 06:41:17;;;;;;;1.98;1.27;;;;;;;;;;5030461;28;20512;-74
2022/07/23 06:43:45;;;;;;;1.67;0.93;;;;;;;;;;5032181;28;20051;-76
2022/07/23 06:46:14;;;;;;;1.83;0.80;;;;;;;;;;5039668;28;20132;-72
2022/07/23 06:48:42;;;;;;;1.90;0.82;;;;;;;;;;5033741;28;20067;-72
2022/07/23 06:51:11;;;;;;;1.20;1.02;;;;;;;;;;5036712;28;20091;-71
2022/07/23 06:53:39;;;;;;;1.65;1.20;;;;;;;;;;5036029;28;20108;-71
2022/07/23 06:56:08;;;;;;;1.75;1.42;;;;;;;;;;5036129;28;20087;-71
2022/07/23 06:58:38;;;;;;;1.05;0.80;;;;;;;;;;5040890;28;20084;-73
2022/07/23 07:01:09;;;;;;;2.83;0.90;;;;;;;;;;5036831;28;20144;-73
2022/07/23 07:03:37;;;;;;;1.20;0.75;;;;;;;;;;5033912;28;20069;-71
2022/07/23 07:06:09;;;;;;;1.95;1.05;;;;;;;;;;5035459;28;20421;-73
2022/07/23 07:08:38;;;;;;;2.00;1.35;;;;;;;;;;5035240;28;20045;-71
2022/07/23 07:11:09;;;;;;;0.80;0.70;;;;;;;;;;5036892;28;20213;-73
2022/07/23 07:13:39;;;;;;;0.95;0.80;;;;;;;;;;5037712;28;20076;-71
2022/07/23 07:16:08;;;;;;;1.67;1.10;;;;;;;;;;5036131;28;20140;-72
2022/07/23 07:18:36;;;;;;;1.25;0.90;;;;;;;;;;5032537;28;20061;-72
2022/07/23 07:21:07;;;;;;;1.55;1.02;;;;;;;;;;5036366;28;20101;-72
2022/07/23 07:23:36;;;;;;;2.03;1.48;;;;;;;;;;5032956;28;20165;-71
2022/07/23 07:26:07;;;;;;;1.63;0.98;;;;;;;;;;5037638;28;20170;-71
2022/07/23 07:28:35;;;;;;;1.52;0.88;;;;;;;;;;5037184;28;20132;-71
2022/07/23 07:31:08;;;;;;;1.23;0.82;;;;;;;;;;5040170;28;20088;-71
2022/07/23 07:33:36;;;;;;;3.38;1.35;;;;;;;;;;5039238;28;20049;-73
2022/07/23 07:36:08;;;;;;;1.13;0.90;;;;;;;;;;5035293;28;20051;-72
2022/07/23 07:38:37;;;;;;;1.90;1.35;;;;;;;;;;5034406;28;20477;-71
2022/07/23 07:41:09;;;;;;;1.73;0.98;;;;;;;;;;5035384;28;20145;-72
2022/07/23 07:43:38;;;;;;;3.40;1.55;;;;;;;;;;5020722;28;20147;-72
2022/07/23 07:46:11;;;;;;;1.40;1.30;;;;;;;;;;5034569;28;20136;-71
2022/07/23 07:48:39;;;;;;;0.95;0.60;;;;;;;;;;5028930;28;20049;-73
2022/07/23 07:51:08;;;;;;;2.47;1.42;;;;;;;;;;5038910;28;20421;-72
2022/07/23 07:53:36;;;;;;;2.75;1.92;;;;;;;;;;5024128;28;20428;-73
2022/07/23 07:56:08;;;;;;;2.25;1.48;;;;;;;;;;5018780;28;20133;-73
2022/07/23 07:58:37;;;;;;;1.83;1.00;;;;;;;;;;5027304;28;20046;-73
2022/07/23 08:01:08;;;;;;;1.65;1.15;;;;;;;;;;5026648;28;20081;-73
2022/07/23 08:03:38;;;;;;;1.40;1.10;;;;;;;;;;5022728;28;20065;-73
2022/07/23 08:06:09;;;;;;;1.33;0.82;;;;;;;;;;5023206;28;20057;-73
2022/07/23 08:08:38;;;;;;;1.05;0.80;;;;;;;;;;5024650;28;20132;-73
2022/07/23 08:11:09;;;;;;;2.83;0.95;;;;;;;;;;5023517;28;20103;-74
2022/07/23 08:13:37;;;;;;;3.08;1.35;;;;;;;;;;5026577;28;20100;-73
2022/07/23 08:16:09;;;;;;;1.55;1.02;;;;;;;;;;5023371;28;20376;-74
2022/07/23 08:18:38;;;;;;;1.40;1.10;;;;;;;;;;5022241;28;20081;-73
2022/07/23 08:21:11;;;;;;;1.38;1.27;;;;;;;;;;5031750;28;20111;-73
2022/07/23 08:23:39;;;;;;;1.13;0.95;;;;;;;;;;5025976;28;20516;-73
2022/07/23 08:26:07;;;;;;;2.08;0.52;;;;;;;;;;5023903;28;20091;-72
2022/07/23 08:28:36;;;;;;;1.52;1.00;;;;;;;;;;5027570;28;20125;-72
2022/07/23 08:31:08;;;;;;;1.35;1.25;;;;;;;;;;5027196;28;20053;-73
2022/07/23 08:33:36;;;;;;;1.60;1.17;;;;;;;;;;5027176;28;20136;-72
2022/07/23 08:36:09;;;;;;;2.35;1.20;;;;;;;;;;5027891;28;20547;-73
2022/07/23 08:38:38;;;;;;;3.33;1.23;;;;;;;;;;5026612;28;20073;-72
2022/07/23 08:41:09;;;;;;;1.13;0.77;;;;;;;;;;5028160;28;20045;-72
2022/07/23 08:43:38;;;;;;;1.27;1.00;;;;;;;;;;5036815;28;20383;-72
2022/07/23 08:46:09;;;;;;;0.98;0.80;;;;;;;;;;5032273;28;20133;-77
2022/07/23 08:48:37;;;;;;;1.27;1.02;;;;;;;;;;5032632;28;20404;-76
2022/07/23 08:51:11;;;;;;;2.03;1.35;;;;;;;;;;5025530;28;20164;-73
2022/07/23 08:53:40;;;;;;;1.20;0.95;;;;;;;;;;5031082;28;20056;-71
2022/07/23 08:56:09;;;;;;;4.15;1.23;;;;;;;;;;5029205;28;20132;-77
2022/07/23 08:58:38;;;;;;;1.02;0.93;;;;;;;;;;5027857;28;20095;-71
2022/07/23 09:01:09;;;;;;;1.70;0.90;;;;;;;;;;5030413;28;20421;-71
2022/07/23 09:03:39;;;;;;;1.35;0.80;;;;;;;;;;5029095;28;20475;-73
2022/07/23 09:06:08;;;;;;;4.03;1.15;;;;;;;;;;5029512;28;20144;-72
2022/07/23 09:08:38;;;;;;;1.17;0.82;;;;;;;;;;5028947;28;20072;-72
2022/07/23 09:11:09;;;;;;;2.03;1.25;;;;;;;;;;5026354;28;20136;-75
2022/07/23 09:13:38;;;;;;;0.70;0.70;;;;;;;;;;5027557;28;20132;-74
2022/07/23 09:16:10;;;;;;;1.48;1.30;;;;;;;;;;5027481;28;20045;-73
2022/07/23 09:18:41;;;;;;;1.45;1.23;;;;;;;;;;5035248;28;20058;-73
2022/07/23 09:21:14;;;;;;;1.35;1.23;;;;;;;;;;5029382;28;20046;-73
2022/07/23 09:23:44;;;;;;;1.17;0.93;;;;;;;;;;5025302;28;20132;-73
2022/07/23 09:26:20;;;;;;;1.60;1.08;;;;;;;;;;5021789;28;20125;-73
2022/07/23 09:28:54;;;;;;;1.02;0.95;;;;;;;;;;5024379;28;20129;-74
2022/07/23 09:31:22;;;;;;;1.52;1.08;;;;;;;;;;5024760;28;20595;-73
2022/07/23 09:33:51;;;;;;;1.52;1.13;;;;;;;;;;5030568;28;20052;-73
2022/07/23 09:36:29;;;;;;;1.08;0.70;;;;;;;;;;5029738;28;20148;-73
2022/07/23 09:38:59;;;;;;;2.20;1.27;;;;;;;;;;5033744;28;20061;-74
2022/07/23 09:41:35;;;;;;;2.08;1.20;;;;;;;;;;5034477;28;20637;-74
2022/07/23 09:44:08;;;;;;;0.98;0.88;;;;;;;;;;5029055;28;20041;-74
2022/07/23 09:46:37;;;;;;;1.83;1.50;;;;;;;;;;5028605;28;20073;-73
2022/07/23 09:49:11;;;;;;;1.70;1.38;;;;;;;;;;5032617;28;20077;-74
2022/07/23 09:51:45;;;;;;;0.98;0.75;;;;;;;;;;5027073;28;20536;-74
2022/07/23 09:54:24;;;;;;;1.42;1.00;;;;;;;;;;5026702;28;20045;-74
2022/07/23 09:56:53;;;;;;;2.22;1.35;;;;;;;;;;5019986;28;20477;-74
2022/07/23 09:59:24;;;;;;;1.58;0.82;;;;;;;;;;5024395;28;20565;-74
2022/07/23 10:01:54;;;;;;;0.68;0.68;;;;;;;;;;5027976;28;20072;-74
2022/07/23 10:04:23;;;;;;;1.60;1.25;;;;;;;;;;5027801;28;20533;-75
2022/07/23 10:06:53;;;;;;;4.40;1.50;;;;;;;;;;5023302;28;20080;-73
2022/07/23 10:09:25;;;;;;;2.05;1.42;;;;;;;;;;5023664;28;20077;-74
2022/07/23 10:11:58;;;;;;;1.08;0.80;;;;;;;;;;5023000;28;20077;-73
2022/07/23 10:14:29;;;;;;;1.63;1.33;;;;;;;;;;5026665;28;20055;-74
2022/07/23 10:16:57;;;;;;;1.02;0.80;;;;;;;;;;5028476;28;20115;-73
2022/07/23 10:19:26;;;;;;;2.30;1.25;;;;;;;;;;5025930;28;20061;-74
2022/07/23 10:21:56;;;;;;;1.75;1.15;;;;;;;;;;5026285;28;20045;-72
2022/07/23 10:24:31;;;;;;;0.82;0.40;;;;;;;;;;5026141;28;20046;-71
2022/07/23 10:27:14;;;;;;;1.27;0.77;;;;;;;;;;5026425;28;20068;-70
2022/07/23 10:29:49;;;;;;;1.33;1.02;;;;;;;;;;5024183;28;20413;-72
2022/07/23 10:32:22;;;;;;;1.48;1.17;;;;;;;;;;5029247;28;20081;-72
2022/07/23 10:34:54;;;;;;;1.27;1.02;;;;;;;;;;5024568;28;20049;-71
2022/07/23 10:37:24;;;;;;;3.30;1.45;;;;;;;;;;5026845;28;20132;-72
2022/07/23 10:40:07;;;;;;;1.77;1.08;;;;;;;;;;5026675;28;20075;-72
2022/07/23 10:42:37;;;;;;;2.53;1.30;;;;;;;;;;5016063;28;20081;-72
2022/07/23 10:45:21;;;;;;;2.88;1.55;;;;;;;;;;5019981;28;20604;-74
2022/07/23 10:47:50;;;;;;;2.90;1.55;;;;;;;;;;5020133;28;20713;-74
2022/07/23 10:50:20;;;;;;;1.40;1.15;;;;;;;;;;5017946;28;20144;-73
2022/07/23 10:53:07;;;;;;;5.05;1.40;;;;;;;;;;5023730;28;20136;-74
2022/07/23 10:55:42;;;;;;;3.15;2.15;;;;;;;;;;5021592;28;20183;-73
2022/07/23 10:58:13;;;;;;;2.00;1.33;;;;;;;;;;5019196;28;20133;-74
2022/07/23 11:00:41;;;;;;;3.15;1.55;;;;;;;;;;5015551;28;20041;-73
2022/07/23 11:03:24;;;;;;;3.97;1.42;;;;;;;;;;5015381;28;20060;-73
2022/07/23 11:05:53;;;;;;;1.92;1.30;;;;;;;;;;5020538;28;20054;-73
2022/07/23 11:08:21;;;;;;;1.85;1.25;;;;;;;;;;5020276;28;20129;-74
2022/07/23 11:10:54;;;;;;;1.90;1.10;;;;;;;;;;5021171;28;20067;-73
2022/07/23 11:13:39;;;;;;;1.38;0.95;;;;;;;;;;5016279;28;20045;-73
2022/07/23 11:16:18;;;;;;;1.70;1.10;;;;;;;;;;5014231;28;20572;-73
2022/07/23 11:19:01;;;;;;;3.10;1.08;;;;;;;;;;5023285;28;20044;-73
2022/07/23 11:21:42;;;;;;;2.10;1.20;;;;;;;;;;5021681;28;20137;-74
2022/07/23 11:24:11;;;;;;;1.70;1.15;;;;;;;;;;5018930;28;20131;-73
2022/07/23 11:26:48;;;;;;;2.65;1.50;;;;;;;;;;5019233;28;20124;-73
2022/07/23 11:29:35;;;;;;;4.13;1.40;;;;;;;;;;5017341;28;20084;-73
2022/07/23 11:32:08;;;;;;;2.38;1.50;;;;;;;;;;5023921;28;20405;-74
2022/07/23 11:34:41;;;;;;;3.58;1.50;;;;;;;;;;5027045;28;20132;-72
2022/07/23 11:37:10;;;;;;;1.80;1.40;;;;;;;;;;5026127;28;20100;-73
2022/07/23 11:39:39;;;;;;;1.75;1.05;;;;;;;;;;5030116;28;20059;-74
2022/07/23 11:42:08;;;;;;;4.18;1.88;;;;;;;;;;5028299;28;20076;-73
2022/07/23 11:44:38;;;;;;;2.20;1.20;;;;;;;;;;5029283;28;20045;-73
2022/07/23 11:47:09;;;;;;;4.22;1.48;;;;;;;;;;5023091;28;20138;-74
2022/07/23 11:49:38;;;;;;;1.50;0.93;;;;;;;;;;5025733;28;20570;-74
2022/07/23 11:52:07;;;;;;;1.77;1.30;;;;;;;;;;5024087;28;20076;-74
2022/07/23 11:54:35;;;;;;;1.25;1.15;;;;;;;;;;5026234;28;20515;-74
2022/07/23 11:57:07;;;;;;;6.78;1.40;;;;;;;;;;5023958;28;20555;-73
2022/07/23 11:59:37;;;;;;;4.20;1.55;;;;;;;;;;5027362;28;20073;-72
2022/07/23 12:02:08;;;;;;;3.03;1.73;;;;;;;;;;5027461;28;20057;-72
2022/07/23 12:04:40;;;;;;;2.90;1.30;;;;;;;;;;5031846;28;20106;-72
2022/07/23 12:07:23;;;;;;;2.35;1.27;;;;;;;;;;5025681;28;20092;-72
2022/07/23 12:09:51;;;;;;;2.47;1.52;;;;;;;;;;5024818;28;20053;-71
2022/07/23 12:12:20;;;;;;;2.47;1.42;;;;;;;;;;5024709;28;20180;-71
2022/07/23 12:14:49;;;;;;;3.45;1.40;;;;;;;;;;5023360;28;20513;-71
2022/07/23 12:17:19;;;;;;;2.00;1.65;;;;;;;;;;5021658;28;20506;-72
2022/07/23 12:19:48;;;;;;;2.15;1.48;;;;;;;;;;5035089;28;20513;-72
2022/07/23 12:22:17;;;;;;;3.35;2.08;;;;;;;;;;5028505;28;20046;-72
2022/07/23 12:24:55;;;;;;;2.63;1.50;;;;;;;;;;5026409;28;20557;-72
2022/07/23 12:27:24;;;;;;;3.25;1.65;;;;;;;;;;5023386;28;20054;-72
2022/07/23 12:29:52;;;;;;;2.05;1.67;;;;;;;;;;5024516;28;20045;-72
2022/07/23 12:32:23;;;;;;;2.60;1.92;;;;;;;;;;5027065;28;20088;-72
2022/07/23 12:35:03;;;;;;;1.67;1.30;;;;;;;;;;5028065;28;20056;-72
2022/07/23 12:37:33;;;;;;;1.92;1.55;;;;;;;;;;5026510;28;20132;-71
2022/07/23 12:40:16;;;;;;;2.90;1.42;;;;;;;;;;5028411;28;20091;-73
2022/07/23 12:42:45;;;;;;;2.00;1.50;;;;;;;;;;5020851;28;20088;-73
2022/07/23 12:45:14;;;;;;;1.83;0.93;;;;;;;;;;5022950;28;20556;-73
2022/07/23 12:48:00;;;;;;;3.60;1.77;;;;;;;;;;5024758;28;20146;-73
2022/07/23 12:50:34;;;;;;;2.85;1.73;;;;;;;;;;5018118;28;20084;-73
2022/07/23 12:53:09;;;;;;;8.32;1.35;;;;;;;;;;5017501;28;20077;-73
2022/07/23 12:55:45;;;;;;;2.55;1.77;;;;;;;;;;5023821;28;20053;-73
2022/07/23 12:58:44;;;;;;;7.60;1.48;;;;;;;;;;5018394;28;20461;-73
2022/07/23 13:01:25;;;;;;;3.25;1.23;;;;;;;;;;5022278;28;20059;-73
2022/07/23 13:03:59;;;;;;;2.92;1.77;;;;;;;;;;5022198;28;20485;-73
2022/07/23 13:06:29;;;;;;;2.53;1.60;;;;;;;;;;5025279;28;20050;-73
2022/07/23 13:08:58;;;;;;;2.67;1.42;;;;;;;;;;5024895;28;20499;-73
2022/07/23 13:11:29;;;;;;;3.20;0.95;;;;;;;;;;5026456;28;20041;-72
2022/07/23 13:14:00;;;;;;;2.88;1.30;;;;;;;;;;5023706;28;20049;-73
2022/07/23 13:16:29;;;;;;;1.60;1.20;;;;;;;;;;5023770;28;20532;-73
2022/07/23 13:18:58;;;;;;;1.40;1.20;;;;;;;;;;5016178;28;20762;-73
2022/07/23 13:21:29;;;;;;;1.63;1.13;;;;;;;;;;5021320;28;20061;-72
2022/07/23 13:23:57;;;;;;;1.80;1.48;;;;;;;;;;5026155;28;20140;-72
2022/07/23 13:26:26;;;;;;;2.63;1.58;;;;;;;;;;5024421;28;20136;-73
2022/07/23 13:28:54;;;;;;;2.75;1.15;;;;;;;;;;5019775;28;20153;-73
2022/07/23 13:31:23;;;;;;;2.45;1.42;;;;;;;;;;5015745;28;20489;-72
2022/07/23 13:33:52;;;;;;;1.77;1.30;;;;;;;;;;5023886;28;20099;-72
2022/07/23 13:36:20;;;;;;;2.05;1.30;;;;;;;;;;5025772;28;20406;-73
2022/07/23 13:38:50;;;;;;;1.58;1.17;;;;;;;;;;5018553;28;20084;-73
2022/07/23 13:41:18;;;;;;;2.40;1.42;;;;;;;;;;5025617;28;20163;-73
2022/07/23 13:43:48;;;;;;;2.75;1.58;;;;;;;;;;5024941;28;20052;-73
2022/07/23 13:46:16;;;;;;;1.70;1.00;;;;;;;;;;5026437;28;20053;-73
2022/07/23 13:48:48;;;;;;;2.88;1.38;;;;;;;;;;5021327;28;20049;-73
2022/07/23 13:51:17;;;;;;;1.23;0.93;;;;;;;;;;5020776;28;20117;-73
2022/07/23 13:53:47;;;;;;;1.60;1.23;;;;;;;;;;5023225;28;20046;-73
2022/07/23 13:56:18;;;;;;;1.95;1.35;;;;;;;;;;5026553;28;20571;-72
2022/07/23 13:58:47;;;;;;;3.10;1.55;;;;;;;;;;5016168;28;20073;-73
2022/07/23 14:01:16;;;;;;;2.47;1.17;;;;;;;;;;5026111;28;20053;-73
2022/07/23 14:03:45;;;;;;;2.45;1.58;;;;;;;;;;5014824;28;20046;-72
2022/07/23 14:06:14;;;;;;;2.25;1.55;;;;;;;;;;5021849;28;20128;-72
2022/07/23 14:08:44;;;;;;;2.17;1.25;;;;;;;;;;5023607;28;20038;-72
2022/07/23 14:11:13;;;;;;;1.73;1.30;;;;;;;;;;5016483;28;20048;-72
2022/07/23 14:13:42;;;;;;;4.40;1.33;;;;;;;;;;5021654;28;20049;-73
2022/07/23 14:16:11;;;;;;;2.70;1.63;;;;;;;;;;5025452;28;20041;-72
2022/07/23 14:18:39;;;;;;;2.20;1.50;;;;;;;;;;5023331;28;20049;-73
2022/07/23 14:21:08;;;;;;;2.88;1.55;;;;;;;;;;5028113;28;20765;-72
2022/07/23 14:23:36;;;;;;;1.70;1.15;;;;;;;;;;5023261;28;20050;-72
2022/07/23 14:26:09;;;;;;;3.25;1.58;;;;;;;;;;5025097;28;20049;-72
2022/07/23 14:28:38;;;;;;;2.78;1.80;;;;;;;;;;5013153;28;20041;-72
2022/07/23 14:31:11;;;;;;;2.50;1.33;;;;;;;;;;5029432;28;20055;-72
2022/07/23 14:33:48;;;;;;;2.33;1.35;;;;;;;;;;5027606;28;20049;-72
2022/07/23 14:36:17;;;;;;;3.08;1.85;;;;;;;;;;5101436;23;20177;-83
2022/07/23 14:38:46;;;;;;;2.15;1.45;;;;;;;;;;4979891;28;20517;-82
2022/07/23 14:41:15;;;;;;;1.15;0.93;;;;;;;;;;4986899;28;20077;-83
2022/07/23 14:43:54;;;;;;;2.60;1.77;;;;;;;;;;4986271;28;20104;-83
2022/07/23 14:46:24;;;;;;;1.98;1.40;;;;;;;;;;4990714;28;20043;-83
2022/07/23 14:48:54;;;;;;;1.92;1.30;;;;;;;;;;5315743;22;20017;-85
2022/07/23 14:51:27;;;;;;;2.53;1.63;;;;;;;;;;5004574;28;20193;-84
2022/07/23 14:53:57;;;;;;;2.65;1.58;;;;;;;;;;5007387;28;20076;-84
2022/07/23 14:56:27;;;;;;;1.40;1.23;;;;;;;;;;5007011;28;20139;-85
2022/07/23 14:58:56;;;;;;;1.33;1.10;;;;;;;;;;5007206;28;20052;-82
2022/07/23 15:01:27;;;;;;;2.60;1.52;;;;;;;;;;5007003;28;20084;-82
2022/07/23 15:03:56;;;;;;;1.75;1.27;;;;;;;;;;5003746;28;20578;-86